sensor_id;sensor_type;location;lat;lon;timestamp;P1;P2;P0
36519;PMS5003;40269;46.742;9.778;2022-12-31T00:02:25;3;3;
36519;PMS5003;40269;46.742;9.778;2022-12-31T00:04:53;6;6;
36519;PMS5003;40269;46.742;9.778;2022-12-31T00:07:20;4;4;
36519;PMS5003;40269;46.742;9.778;2022-12-31T00:09:47;7;6;
36519;PMS5003;40269;46.742;9.778;2022-12-31T00:12:14;4;4;
36519;PMS5003;40269;46.742;9.778;2022-12-31T00:14:41;4;4;
36519;PMS5003;40269;46.742;9.778;2022-12-31T00:17:09;6;6;
36519;PMS5003;40269;46.742;9.778;2022-12-31T00:19:36;4;3;
36519;PMS5003;40269;46.742;9.778;2022-12-31T00:22:04;4;3;
36519;PMS5003;40269;46.742;9.778;2022-12-31T00:24:30;3;3;
36519;PMS5003;40269;46.742;9.778;2022-12-31T00:26:57;2;2;
36519;PMS5003;40269;46.742;9.778;2022-12-31T00:29:23;3;3;
36519;PMS5003;40269;46.742;9.778;2022-12-31T00:31:50;4;4;
36519;PMS5003;40269;46.742;9.778;2022-12-31T00:34:17;4;4;
36519;PMS5003;40269;46.742;9.778;2022-12-31T00:36:43;2;2;
36519;PMS5003;40269;46.742;9.778;2022-12-31T00:39:10;2;2;
36519;PMS5003;40269;46.742;9.778;2022-12-31T00:41:37;4;3;
36519;PMS5003;40269;46.742;9.778;2022-12-31T00:44:05;3;3;
36519;PMS5003;40269;46.742;9.778;2022-12-31T00:46:32;4;2;
36519;PMS5003;40269;46.742;9.778;2022-12-31T00:49:00;2;2;
36519;PMS5003;40269;46.742;9.778;2022-12-31T00:51:27;4;3;
36519;PMS5003;40269;46.742;9.778;2022-12-31T00:53:55;2;2;
36519;PMS5003;40269;46.742;9.778;2022-12-31T00:56:23;1;1;
36519;PMS5003;40269;46.742;9.778;2022-12-31T00:58:53;3;2;
36519;PMS5003;40269;46.742;9.778;2022-12-31T01:01:20;2;2;
36519;PMS5003;40269;46.742;9.778;2022-12-31T01:03:49;3;2;
36519;PMS5003;40269;46.742;9.778;2022-12-31T01:06:18;3;1;
36519;PMS5003;40269;46.742;9.778;2022-12-31T01:08:47;6;4;
36519;PMS5003;40269;46.742;9.778;2022-12-31T01:11:15;2;2;
36519;PMS5003;40269;46.742;9.778;2022-12-31T01:13:43;3;3;
36519;PMS5003;40269;46.742;9.778;2022-12-31T01:16:11;2;2;
36519;PMS5003;40269;46.742;9.778;2022-12-31T01:18:40;3;3;
36519;PMS5003;40269;46.742;9.778;2022-12-31T01:21:08;3;3;
36519;PMS5003;40269;46.742;9.778;2022-12-31T01:23:37;2;2;
36519;PMS5003;40269;46.742;9.778;2022-12-31T01:26:05;2;2;
36519;PMS5003;40269;46.742;9.778;2022-12-31T01:28:35;3;3;
36519;PMS5003;40269;46.742;9.778;2022-12-31T01:31:04;4;4;
36519;PMS5003;40269;46.742;9.778;2022-12-31T01:33:32;3;3;
36519;PMS5003;40269;46.742;9.778;2022-12-31T01:36:01;3;3;
36519;PMS5003;40269;46.742;9.778;2022-12-31T01:38:29;3;2;
36519;PMS5003;40269;46.742;9.778;2022-12-31T01:40:56;6;5;
36519;PMS5003;40269;46.742;9.778;2022-12-31T01:43:41;4;3;
36519;PMS5003;40269;46.742;9.778;2022-12-31T01:46:11;3;3;
36519;PMS5003;40269;46.742;9.778;2022-12-31T01:48:42;3;2;
36519;PMS5003;40269;46.742;9.778;2022-12-31T01:51:13;2;2;
36519;PMS5003;40269;46.742;9.778;2022-12-31T01:53:41;3;3;
36519;PMS5003;40269;46.742;9.778;2022-12-31T01:56:09;4;3;
36519;PMS5003;40269;46.742;9.778;2022-12-31T01:58:37;2;2;
36519;PMS5003;40269;46.742;9.778;2022-12-31T02:01:08;3;3;
36519;PMS5003;40269;46.742;9.778;2022-12-31T02:03:39;3;3;
36519;PMS5003;40269;46.742;9.778;2022-12-31T02:06:15;5;3;
36519;PMS5003;40269;46.742;9.778;2022-12-31T02:08:45;3;3;
36519;PMS5003;40269;46.742;9.778;2022-12-31T02:11:21;3;3;
36519;PMS5003;40269;46.742;9.778;2022-12-31T02:13:51;4;4;
36519;PMS5003;40269;46.742;9.778;2022-12-31T02:16:23;5;3;
36519;PMS5003;40269;46.742;9.778;2022-12-31T02:18:57;3;3;
36519;PMS5003;40269;46.742;9.778;2022-12-31T02:21:35;3;3;
36519;PMS5003;40269;46.742;9.778;2022-12-31T02:24:31;5;4;
36519;PMS5003;40269;46.742;9.778;2022-12-31T02:27:15;1;1;
36519;PMS5003;40269;46.742;9.778;2022-12-31T02:30:01;3;3;
36519;PMS5003;40269;46.742;9.778;2022-12-31T02:32:35;3;3;
36519;PMS5003;40269;46.742;9.778;2022-12-31T02:35:18;4;3;
36519;PMS5003;40269;46.742;9.778;2022-12-31T02:37:51;4;3;
36519;PMS5003;40269;46.742;9.778;2022-12-31T02:40:23;3;3;
36519;PMS5003;40269;46.742;9.778;2022-12-31T02:42:51;3;3;
36519;PMS5003;40269;46.742;9.778;2022-12-31T02:45:18;2;2;
36519;PMS5003;40269;46.742;9.778;2022-12-31T02:47:55;4;4;
36519;PMS5003;40269;46.742;9.778;2022-12-31T02:50:33;3;3;
36519;PMS5003;40269;46.742;9.778;2022-12-31T02:53:12;4;4;
36519;PMS5003;40269;46.742;9.778;2022-12-31T02:55:51;6;4;
36519;PMS5003;40269;46.742;9.778;2022-12-31T02:58:28;6;5;
36519;PMS5003;40269;46.742;9.778;2022-12-31T03:01:01;5;5;
36519;PMS5003;40269;46.742;9.778;2022-12-31T03:03:29;4;3;
36519;PMS5003;40269;46.742;9.778;2022-12-31T03:05:56;2;2;
36519;PMS5003;40269;46.742;9.778;2022-12-31T03:08:27;2;2;
36519;PMS5003;40269;46.742;9.778;2022-12-31T03:10:54;3;2;
36519;PMS5003;40269;46.742;9.778;2022-12-31T03:13:21;2;1;
36519;PMS5003;40269;46.742;9.778;2022-12-31T03:15:49;2;2;
36519;PMS5003;40269;46.742;9.778;2022-12-31T03:18:17;2;2;
36519;PMS5003;40269;46.742;9.778;2022-12-31T03:20:46;3;3;
36519;PMS5003;40269;46.742;9.778;2022-12-31T03:23:16;4;3;
36519;PMS5003;40269;46.742;9.778;2022-12-31T03:25:46;3;3;
36519;PMS5003;40269;46.742;9.778;2022-12-31T03:28:15;2;2;
36519;PMS5003;40269;46.742;9.778;2022-12-31T03:30:45;3;3;
36519;PMS5003;40269;46.742;9.778;2022-12-31T03:33:14;4;3;
36519;PMS5003;40269;46.742;9.778;2022-12-31T03:35:42;2;2;
36519;PMS5003;40269;46.742;9.778;2022-12-31T03:38:10;2;2;
36519;PMS5003;40269;46.742;9.778;2022-12-31T03:40:38;3;2;
36519;PMS5003;40269;46.742;9.778;2022-12-31T03:43:07;2;2;
36519;PMS5003;40269;46.742;9.778;2022-12-31T03:45:34;6;4;
36519;PMS5003;40269;46.742;9.778;2022-12-31T03:48:02;3;2;
36519;PMS5003;40269;46.742;9.778;2022-12-31T03:50:30;4;4;
36519;PMS5003;40269;46.742;9.778;2022-12-31T03:52:57;2;2;
36519;PMS5003;40269;46.742;9.778;2022-12-31T03:55:23;3;3;
36519;PMS5003;40269;46.742;9.778;2022-12-31T03:57:51;1;1;
36519;PMS5003;40269;46.742;9.778;2022-12-31T04:00:18;1;1;
36519;PMS5003;40269;46.742;9.778;2022-12-31T04:02:47;3;3;
36519;PMS5003;40269;46.742;9.778;2022-12-31T04:05:15;2;2;
36519;PMS5003;40269;46.742;9.778;2022-12-31T04:07:43;1;1;
36519;PMS5003;40269;46.742;9.778;2022-12-31T04:10:12;2;2;
36519;PMS5003;40269;46.742;9.778;2022-12-31T04:12:40;2;2;
36519;PMS5003;40269;46.742;9.778;2022-12-31T04:15:08;2;2;
36519;PMS5003;40269;46.742;9.778;2022-12-31T04:17:40;2;2;
36519;PMS5003;40269;46.742;9.778;2022-12-31T04:20:07;1;1;
36519;PMS5003;40269;46.742;9.778;2022-12-31T04:22:35;1;1;
36519;PMS5003;40269;46.742;9.778;2022-12-31T04:25:02;1;1;
36519;PMS5003;40269;46.742;9.778;2022-12-31T04:27:30;2;2;
36519;PMS5003;40269;46.742;9.778;2022-12-31T04:29:57;1;1;
36519;PMS5003;40269;46.742;9.778;2022-12-31T04:32:24;1;1;
36519;PMS5003;40269;46.742;9.778;2022-12-31T04:34:51;2;2;
36519;PMS5003;40269;46.742;9.778;2022-12-31T04:37:18;5;5;
36519;PMS5003;40269;46.742;9.778;2022-12-31T04:39:44;3;3;
36519;PMS5003;40269;46.742;9.778;2022-12-31T04:42:11;5;5;
36519;PMS5003;40269;46.742;9.778;2022-12-31T04:44:38;1;1;
36519;PMS5003;40269;46.742;9.778;2022-12-31T04:47:05;2;2;
36519;PMS5003;40269;46.742;9.778;2022-12-31T04:49:31;1;1;
36519;PMS5003;40269;46.742;9.778;2022-12-31T04:51:58;2;2;
36519;PMS5003;40269;46.742;9.778;2022-12-31T04:54:25;1;1;
36519;PMS5003;40269;46.742;9.778;2022-12-31T04:56:51;2;2;
36519;PMS5003;40269;46.742;9.778;2022-12-31T04:59:18;10;10;
36519;PMS5003;40269;46.742;9.778;2022-12-31T05:01:45;8;8;
36519;PMS5003;40269;46.742;9.778;2022-12-31T05:04:11;8;6;
36519;PMS5003;40269;46.742;9.778;2022-12-31T05:06:38;3;3;
36519;PMS5003;40269;46.742;9.778;2022-12-31T05:09:05;3;3;
36519;PMS5003;40269;46.742;9.778;2022-12-31T05:11:31;4;4;
36519;PMS5003;40269;46.742;9.778;2022-12-31T05:13:58;6;6;
36519;PMS5003;40269;46.742;9.778;2022-12-31T05:16:25;3;2;
36519;PMS5003;40269;46.742;9.778;2022-12-31T05:18:51;2;2;
36519;PMS5003;40269;46.742;9.778;2022-12-31T05:21:19;0;0;
36519;PMS5003;40269;46.742;9.778;2022-12-31T05:23:47;1;1;
36519;PMS5003;40269;46.742;9.778;2022-12-31T05:26:15;1;1;
36519;PMS5003;40269;46.742;9.778;2022-12-31T05:28:42;3;1;
36519;PMS5003;40269;46.742;9.778;2022-12-31T05:31:09;3;3;
36519;PMS5003;40269;46.742;9.778;2022-12-31T05:33:36;2;2;
36519;PMS5003;40269;46.742;9.778;2022-12-31T05:36:02;2;2;
36519;PMS5003;40269;46.742;9.778;2022-12-31T05:38:30;1;1;
36519;PMS5003;40269;46.742;9.778;2022-12-31T05:40:58;2;2;
36519;PMS5003;40269;46.742;9.778;2022-12-31T05:43:26;1;1;
36519;PMS5003;40269;46.742;9.778;2022-12-31T05:45:53;0;0;
36519;PMS5003;40269;46.742;9.778;2022-12-31T05:48:20;1;1;
36519;PMS5003;40269;46.742;9.778;2022-12-31T05:50:47;2;2;
36519;PMS5003;40269;46.742;9.778;2022-12-31T05:53:14;1;1;
36519;PMS5003;40269;46.742;9.778;2022-12-31T05:55:41;1;1;
36519;PMS5003;40269;46.742;9.778;2022-12-31T05:58:07;1;1;
36519;PMS5003;40269;46.742;9.778;2022-12-31T06:00:34;1;1;
36519;PMS5003;40269;46.742;9.778;2022-12-31T06:03:01;1;1;
36519;PMS5003;40269;46.742;9.778;2022-12-31T06:05:28;1;1;
36519;PMS5003;40269;46.742;9.778;2022-12-31T06:07:54;1;1;
36519;PMS5003;40269;46.742;9.778;2022-12-31T06:10:21;3;2;
36519;PMS5003;40269;46.742;9.778;2022-12-31T06:12:48;0;0;
36519;PMS5003;40269;46.742;9.778;2022-12-31T06:15:14;1;1;
36519;PMS5003;40269;46.742;9.778;2022-12-31T06:17:42;3;3;
36519;PMS5003;40269;46.742;9.778;2022-12-31T06:20:08;1;1;
36519;PMS5003;40269;46.742;9.778;2022-12-31T06:22:36;1;1;
36519;PMS5003;40269;46.742;9.778;2022-12-31T06:25:03;1;1;
36519;PMS5003;40269;46.742;9.778;2022-12-31T06:27:31;3;3;
36519;PMS5003;40269;46.742;9.778;2022-12-31T06:29:57;2;2;
36519;PMS5003;40269;46.742;9.778;2022-12-31T06:32:25;31;26;
36519;PMS5003;40269;46.742;9.778;2022-12-31T06:34:52;5;3;
36519;PMS5003;40269;46.742;9.778;2022-12-31T06:37:18;8;6;
36519;PMS5003;40269;46.742;9.778;2022-12-31T06:39:45;5;4;
36519;PMS5003;40269;46.742;9.778;2022-12-31T06:42:11;3;3;
36519;PMS5003;40269;46.742;9.778;2022-12-31T06:44:38;1;1;
36519;PMS5003;40269;46.742;9.778;2022-12-31T06:47:05;4;3;
36519;PMS5003;40269;46.742;9.778;2022-12-31T06:49:32;3;3;
36519;PMS5003;40269;46.742;9.778;2022-12-31T06:51:59;7;7;
36519;PMS5003;40269;46.742;9.778;2022-12-31T06:54:25;7;6;
36519;PMS5003;40269;46.742;9.778;2022-12-31T06:56:52;4;4;
36519;PMS5003;40269;46.742;9.778;2022-12-31T06:59:22;4;4;
36519;PMS5003;40269;46.742;9.778;2022-12-31T07:02:27;3;3;
36519;PMS5003;40269;46.742;9.778;2022-12-31T07:05:07;3;3;
36519;PMS5003;40269;46.742;9.778;2022-12-31T07:07:42;4;3;
36519;PMS5003;40269;46.742;9.778;2022-12-31T07:10:19;3;3;
36519;PMS5003;40269;46.742;9.778;2022-12-31T07:12:59;3;3;
36519;PMS5003;40269;46.742;9.778;2022-12-31T07:15:38;4;4;
36519;PMS5003;40269;46.742;9.778;2022-12-31T07:18:18;3;3;
36519;PMS5003;40269;46.742;9.778;2022-12-31T07:20:55;4;3;
36519;PMS5003;40269;46.742;9.778;2022-12-31T07:23:22;3;3;
36519;PMS5003;40269;46.742;9.778;2022-12-31T07:25:50;5;5;
36519;PMS5003;40269;46.742;9.778;2022-12-31T07:28:31;2;2;
36519;PMS5003;40269;46.742;9.778;2022-12-31T07:31:06;3;3;
36519;PMS5003;40269;46.742;9.778;2022-12-31T07:33:43;8;6;
36519;PMS5003;40269;46.742;9.778;2022-12-31T07:36:21;4;4;
36519;PMS5003;40269;46.742;9.778;2022-12-31T07:38:59;5;4;
36519;PMS5003;40269;46.742;9.778;2022-12-31T07:41:36;4;4;
36519;PMS5003;40269;46.742;9.778;2022-12-31T07:44:15;12;9;
36519;PMS5003;40269;46.742;9.778;2022-12-31T07:46:54;13;11;
36519;PMS5003;40269;46.742;9.778;2022-12-31T07:49:23;13;13;
36519;PMS5003;40269;46.742;9.778;2022-12-31T07:51:52;7;6;
36519;PMS5003;40269;46.742;9.778;2022-12-31T07:54:19;6;5;
36519;PMS5003;40269;46.742;9.778;2022-12-31T07:56:47;4;4;
36519;PMS5003;40269;46.742;9.778;2022-12-31T07:59:16;2;2;
36519;PMS5003;40269;46.742;9.778;2022-12-31T08:01:55;4;4;
36519;PMS5003;40269;46.742;9.778;2022-12-31T08:04:28;5;4;
36519;PMS5003;40269;46.742;9.778;2022-12-31T08:07:02;4;4;
36519;PMS5003;40269;46.742;9.778;2022-12-31T08:09:40;4;4;
36519;PMS5003;40269;46.742;9.778;2022-12-31T08:12:12;4;3;
36519;PMS5003;40269;46.742;9.778;2022-12-31T08:14:42;6;5;
36519;PMS5003;40269;46.742;9.778;2022-12-31T08:17:11;4;4;
36519;PMS5003;40269;46.742;9.778;2022-12-31T08:19:39;4;4;
36519;PMS5003;40269;46.742;9.778;2022-12-31T08:22:12;7;6;
36519;PMS5003;40269;46.742;9.778;2022-12-31T08:24:50;3;3;
36519;PMS5003;40269;46.742;9.778;2022-12-31T08:27:27;5;5;
36519;PMS5003;40269;46.742;9.778;2022-12-31T08:30:00;57;55;
36519;PMS5003;40269;46.742;9.778;2022-12-31T08:32:34;17;17;
36519;PMS5003;40269;46.742;9.778;2022-12-31T08:35:12;5;3;
36519;PMS5003;40269;46.742;9.778;2022-12-31T08:37:49;5;4;
36519;PMS5003;40269;46.742;9.778;2022-12-31T08:40:24;5;3;
36519;PMS5003;40269;46.742;9.778;2022-12-31T08:43:02;4;4;
36519;PMS5003;40269;46.742;9.778;2022-12-31T08:45:42;9;6;
36519;PMS5003;40269;46.742;9.778;2022-12-31T08:48:17;3;3;
36519;PMS5003;40269;46.742;9.778;2022-12-31T08:50:51;9;6;
36519;PMS5003;40269;46.742;9.778;2022-12-31T08:53:18;3;3;
36519;PMS5003;40269;46.742;9.778;2022-12-31T08:55:45;6;6;
36519;PMS5003;40269;46.742;9.778;2022-12-31T08:58:21;8;4;
36519;PMS5003;40269;46.742;9.778;2022-12-31T09:01:00;6;5;
36519;PMS5003;40269;46.742;9.778;2022-12-31T09:03:31;7;6;
36519;PMS5003;40269;46.742;9.778;2022-12-31T09:06:09;5;5;
36519;PMS5003;40269;46.742;9.778;2022-12-31T09:08:46;5;5;
36519;PMS5003;40269;46.742;9.778;2022-12-31T09:11:22;4;4;
36519;PMS5003;40269;46.742;9.778;2022-12-31T09:14:34;4;4;
36519;PMS5003;40269;46.742;9.778;2022-12-31T09:17:10;4;4;
36519;PMS5003;40269;46.742;9.778;2022-12-31T09:19:54;3;3;
36519;PMS5003;40269;46.742;9.778;2022-12-31T09:22:22;5;4;
36519;PMS5003;40269;46.742;9.778;2022-12-31T09:24:49;3;3;
36519;PMS5003;40269;46.742;9.778;2022-12-31T09:27:17;4;4;
36519;PMS5003;40269;46.742;9.778;2022-12-31T09:29:54;4;4;
36519;PMS5003;40269;46.742;9.778;2022-12-31T09:32:28;4;4;
36519;PMS5003;40269;46.742;9.778;2022-12-31T09:35:04;36;35;
36519;PMS5003;40269;46.742;9.778;2022-12-31T09:37:41;14;12;
36519;PMS5003;40269;46.742;9.778;2022-12-31T09:40:22;17;17;
36519;PMS5003;40269;46.742;9.778;2022-12-31T09:43:18;5;5;
36519;PMS5003;40269;46.742;9.778;2022-12-31T09:46:12;5;5;
36519;PMS5003;40269;46.742;9.778;2022-12-31T09:49:03;5;5;
36519;PMS5003;40269;46.742;9.778;2022-12-31T09:51:48;3;3;
36519;PMS5003;40269;46.742;9.778;2022-12-31T09:54:27;6;5;
36519;PMS5003;40269;46.742;9.778;2022-12-31T09:57:09;5;4;
36519;PMS5003;40269;46.742;9.778;2022-12-31T09:59:48;5;5;
36519;PMS5003;40269;46.742;9.778;2022-12-31T10:02:40;3;3;
36519;PMS5003;40269;46.742;9.778;2022-12-31T10:05:22;4;4;
36519;PMS5003;40269;46.742;9.778;2022-12-31T10:08:05;3;3;
36519;PMS5003;40269;46.742;9.778;2022-12-31T10:10:40;3;3;
36519;PMS5003;40269;46.742;9.778;2022-12-31T10:13:18;5;5;
36519;PMS5003;40269;46.742;9.778;2022-12-31T10:17:01;2;2;
36519;PMS5003;40269;46.742;9.778;2022-12-31T10:19:43;2;2;
36519;PMS5003;40269;46.742;9.778;2022-12-31T10:22:30;2;2;
36519;PMS5003;40269;46.742;9.778;2022-12-31T10:25:16;2;2;
36519;PMS5003;40269;46.742;9.778;2022-12-31T10:27:50;1;1;
36519;PMS5003;40269;46.742;9.778;2022-12-31T10:30:25;2;2;
36519;PMS5003;40269;46.742;9.778;2022-12-31T10:33:05;4;1;
36519;PMS5003;40269;46.742;9.778;2022-12-31T10:35:38;17;17;
36519;PMS5003;40269;46.742;9.778;2022-12-31T10:38:12;3;3;
36519;PMS5003;40269;46.742;9.778;2022-12-31T10:40:53;2;2;
36519;PMS5003;40269;46.742;9.778;2022-12-31T10:43:11;2;2;
36519;PMS5003;40269;46.742;9.778;2022-12-31T10:46:09;0;0;
36519;PMS5003;40269;46.742;9.778;2022-12-31T10:49:02;0;0;
36519;PMS5003;40269;46.742;9.778;2022-12-31T10:52:23;1;1;
36519;PMS5003;40269;46.742;9.778;2022-12-31T10:55:47;0;0;
36519;PMS5003;40269;46.742;9.778;2022-12-31T10:58:38;1;0;
36519;PMS5003;40269;46.742;9.778;2022-12-31T11:01:42;2;1;
36519;PMS5003;40269;46.742;9.778;2022-12-31T11:04:51;0;0;
36519;PMS5003;40269;46.742;9.778;2022-12-31T11:07:44;3;3;
36519;PMS5003;40269;46.742;9.778;2022-12-31T11:11:26;0;0;
36519;PMS5003;40269;46.742;9.778;2022-12-31T11:14:08;1;1;
36519;PMS5003;40269;46.742;9.778;2022-12-31T11:16:54;2;1;
36519;PMS5003;40269;46.742;9.778;2022-12-31T11:19:33;1;1;
36519;PMS5003;40269;46.742;9.778;2022-12-31T11:22:12;0;0;
36519;PMS5003;40269;46.742;9.778;2022-12-31T11:24:58;1;1;
36519;PMS5003;40269;46.742;9.778;2022-12-31T11:27:47;0;0;
36519;PMS5003;40269;46.742;9.778;2022-12-31T11:30:31;1;1;
36519;PMS5003;40269;46.742;9.778;2022-12-31T11:33:12;0;0;
36519;PMS5003;40269;46.742;9.778;2022-12-31T11:35:56;2;2;
36519;PMS5003;40269;46.742;9.778;2022-12-31T11:38:35;1;0;
36519;PMS5003;40269;46.742;9.778;2022-12-31T11:41:06;1;1;
36519;PMS5003;40269;46.742;9.778;2022-12-31T11:43:45;1;1;
36519;PMS5003;40269;46.742;9.778;2022-12-31T11:46:23;2;2;
36519;PMS5003;40269;46.742;9.778;2022-12-31T11:49:07;3;2;
36519;PMS5003;40269;46.742;9.778;2022-12-31T11:51:49;0;0;
36519;PMS5003;40269;46.742;9.778;2022-12-31T11:54:37;0;0;
36519;PMS5003;40269;46.742;9.778;2022-12-31T11:57:18;0;0;
36519;PMS5003;40269;46.742;9.778;2022-12-31T11:59:51;1;1;
36519;PMS5003;40269;46.742;9.778;2022-12-31T12:02:24;0;0;
36519;PMS5003;40269;46.742;9.778;2022-12-31T12:04:55;0;0;
36519;PMS5003;40269;46.742;9.778;2022-12-31T12:07:25;0;0;
36519;PMS5003;40269;46.742;9.778;2022-12-31T12:09:54;0;0;
36519;PMS5003;40269;46.742;9.778;2022-12-31T12:12:23;0;0;
36519;PMS5003;40269;46.742;9.778;2022-12-31T12:14:51;1;1;
36519;PMS5003;40269;46.742;9.778;2022-12-31T12:17:22;0;0;
36519;PMS5003;40269;46.742;9.778;2022-12-31T12:19:53;0;0;
36519;PMS5003;40269;46.742;9.778;2022-12-31T12:22:23;0;0;
36519;PMS5003;40269;46.742;9.778;2022-12-31T12:24:52;0;0;
36519;PMS5003;40269;46.742;9.778;2022-12-31T12:27:22;2;2;
36519;PMS5003;40269;46.742;9.778;2022-12-31T12:29:52;1;1;
36519;PMS5003;40269;46.742;9.778;2022-12-31T12:32:20;0;0;
36519;PMS5003;40269;46.742;9.778;2022-12-31T12:34:49;1;0;
36519;PMS5003;40269;46.742;9.778;2022-12-31T12:37:24;1;1;
36519;PMS5003;40269;46.742;9.778;2022-12-31T12:39:55;2;1;
36519;PMS5003;40269;46.742;9.778;2022-12-31T12:42:22;1;1;
36519;PMS5003;40269;46.742;9.778;2022-12-31T12:44:59;1;1;
36519;PMS5003;40269;46.742;9.778;2022-12-31T12:47:27;2;2;
36519;PMS5003;40269;46.742;9.778;2022-12-31T12:49:54;1;1;
36519;PMS5003;40269;46.742;9.778;2022-12-31T12:52:27;1;1;
36519;PMS5003;40269;46.742;9.778;2022-12-31T12:55:14;1;0;
36519;PMS5003;40269;46.742;9.778;2022-12-31T12:57:47;1;1;
36519;PMS5003;40269;46.742;9.778;2022-12-31T13:00:20;1;1;
36519;PMS5003;40269;46.742;9.778;2022-12-31T13:02:58;0;0;
36519;PMS5003;40269;46.742;9.778;2022-12-31T13:05:44;3;1;
36519;PMS5003;40269;46.742;9.778;2022-12-31T13:08:25;0;0;
36519;PMS5003;40269;46.742;9.778;2022-12-31T13:11:06;3;1;
36519;PMS5003;40269;46.742;9.778;2022-12-31T13:13:45;2;2;
36519;PMS5003;40269;46.742;9.778;2022-12-31T13:16:21;3;3;
36519;PMS5003;40269;46.742;9.778;2022-12-31T13:18:57;8;8;
36519;PMS5003;40269;46.742;9.778;2022-12-31T13:21:36;8;8;
36519;PMS5003;40269;46.742;9.778;2022-12-31T13:24:14;9;8;
36519;PMS5003;40269;46.742;9.778;2022-12-31T13:26:49;7;7;
36519;PMS5003;40269;46.742;9.778;2022-12-31T13:29:24;7;7;
36519;PMS5003;40269;46.742;9.778;2022-12-31T13:31:55;3;3;
36519;PMS5003;40269;46.742;9.778;2022-12-31T13:34:26;4;4;
36519;PMS5003;40269;46.742;9.778;2022-12-31T13:36:58;7;4;
36519;PMS5003;40269;46.742;9.778;2022-12-31T13:39:32;4;3;
36519;PMS5003;40269;46.742;9.778;2022-12-31T13:42:08;5;5;
36519;PMS5003;40269;46.742;9.778;2022-12-31T13:44:40;4;4;
36519;PMS5003;40269;46.742;9.778;2022-12-31T13:47:14;7;6;
36519;PMS5003;40269;46.742;9.778;2022-12-31T13:49:47;7;7;
36519;PMS5003;40269;46.742;9.778;2022-12-31T13:52:21;7;7;
36519;PMS5003;40269;46.742;9.778;2022-12-31T13:54:57;6;3;
36519;PMS5003;40269;46.742;9.778;2022-12-31T13:57:35;4;4;
36519;PMS5003;40269;46.742;9.778;2022-12-31T14:00:14;6;6;
36519;PMS5003;40269;46.742;9.778;2022-12-31T14:02:47;5;5;
36519;PMS5003;40269;46.742;9.778;2022-12-31T14:05:24;5;5;
36519;PMS5003;40269;46.742;9.778;2022-12-31T14:07:56;5;5;
36519;PMS5003;40269;46.742;9.778;2022-12-31T14:10:27;5;4;
36519;PMS5003;40269;46.742;9.778;2022-12-31T14:13:07;3;2;
36519;PMS5003;40269;46.742;9.778;2022-12-31T14:15:50;4;4;
36519;PMS5003;40269;46.742;9.778;2022-12-31T14:18:31;4;4;
36519;PMS5003;40269;46.742;9.778;2022-12-31T14:21:06;3;3;
36519;PMS5003;40269;46.742;9.778;2022-12-31T14:23:39;2;2;
36519;PMS5003;40269;46.742;9.778;2022-12-31T14:26:18;5;4;
36519;PMS5003;40269;46.742;9.778;2022-12-31T14:28:53;3;3;
36519;PMS5003;40269;46.742;9.778;2022-12-31T14:31:29;2;2;
36519;PMS5003;40269;46.742;9.778;2022-12-31T14:34:16;2;1;
36519;PMS5003;40269;46.742;9.778;2022-12-31T14:36:51;1;1;
36519;PMS5003;40269;46.742;9.778;2022-12-31T14:39:28;4;3;
36519;PMS5003;40269;46.742;9.778;2022-12-31T14:42:09;6;6;
36519;PMS5003;40269;46.742;9.778;2022-12-31T14:44:47;10;10;
36519;PMS5003;40269;46.742;9.778;2022-12-31T14:47:26;42;35;
36519;PMS5003;40269;46.742;9.778;2022-12-31T14:50:03;65;57;
36519;PMS5003;40269;46.742;9.778;2022-12-31T14:52:46;47;43;
36519;PMS5003;40269;46.742;9.778;2022-12-31T14:55:24;33;29;
36519;PMS5003;40269;46.742;9.778;2022-12-31T14:57:53;22;18;
36519;PMS5003;40269;46.742;9.778;2022-12-31T15:00:24;18;16;
36519;PMS5003;40269;46.742;9.778;2022-12-31T15:02:54;6;6;
36519;PMS5003;40269;46.742;9.778;2022-12-31T15:05:25;35;34;
36519;PMS5003;40269;46.742;9.778;2022-12-31T15:08:03;12;11;
36519;PMS5003;40269;46.742;9.778;2022-12-31T15:10:51;6;5;
36519;PMS5003;40269;46.742;9.778;2022-12-31T15:13:39;2;2;
36519;PMS5003;40269;46.742;9.778;2022-12-31T15:16:20;8;7;
36519;PMS5003;40269;46.742;9.778;2022-12-31T15:19:14;6;5;
36519;PMS5003;40269;46.742;9.778;2022-12-31T15:21:59;5;4;
36519;PMS5003;40269;46.742;9.778;2022-12-31T15:24:35;4;4;
36519;PMS5003;40269;46.742;9.778;2022-12-31T15:27:20;4;4;
36519;PMS5003;40269;46.742;9.778;2022-12-31T15:29:56;3;3;
36519;PMS5003;40269;46.742;9.778;2022-12-31T15:32:24;4;4;
36519;PMS5003;40269;46.742;9.778;2022-12-31T15:35:00;4;4;
36519;PMS5003;40269;46.742;9.778;2022-12-31T15:37:30;4;4;
36519;PMS5003;40269;46.742;9.778;2022-12-31T15:40:16;6;6;
36519;PMS5003;40269;46.742;9.778;2022-12-31T15:42:46;6;5;
36519;PMS5003;40269;46.742;9.778;2022-12-31T15:45:19;13;9;
36519;PMS5003;40269;46.742;9.778;2022-12-31T15:47:51;6;6;
36519;PMS5003;40269;46.742;9.778;2022-12-31T15:50:22;10;9;
36519;PMS5003;40269;46.742;9.778;2022-12-31T15:52:51;35;29;
36519;PMS5003;40269;46.742;9.778;2022-12-31T15:55:24;14;12;
36519;PMS5003;40269;46.742;9.778;2022-12-31T15:57:55;13;12;
36519;PMS5003;40269;46.742;9.778;2022-12-31T16:00:25;22;20;
36519;PMS5003;40269;46.742;9.778;2022-12-31T16:03:03;12;11;
36519;PMS5003;40269;46.742;9.778;2022-12-31T16:05:45;14;14;
36519;PMS5003;40269;46.742;9.778;2022-12-31T16:08:12;7;7;
36519;PMS5003;40269;46.742;9.778;2022-12-31T16:10:44;6;6;
36519;PMS5003;40269;46.742;9.778;2022-12-31T16:13:16;10;10;
36519;PMS5003;40269;46.742;9.778;2022-12-31T16:15:47;23;20;
36519;PMS5003;40269;46.742;9.778;2022-12-31T16:18:17;16;16;
36519;PMS5003;40269;46.742;9.778;2022-12-31T16:20:45;9;9;
36519;PMS5003;40269;46.742;9.778;2022-12-31T16:23:17;13;12;
36519;PMS5003;40269;46.742;9.778;2022-12-31T16:25:47;17;16;
36519;PMS5003;40269;46.742;9.778;2022-12-31T16:28:17;20;18;
36519;PMS5003;40269;46.742;9.778;2022-12-31T16:30:45;28;26;
36519;PMS5003;40269;46.742;9.778;2022-12-31T16:33:24;28;24;
36519;PMS5003;40269;46.742;9.778;2022-12-31T16:35:53;27;22;
36519;PMS5003;40269;46.742;9.778;2022-12-31T16:38:21;17;17;
36519;PMS5003;40269;46.742;9.778;2022-12-31T16:41:04;17;15;
36519;PMS5003;40269;46.742;9.778;2022-12-31T16:43:34;13;13;
36519;PMS5003;40269;46.742;9.778;2022-12-31T16:46:06;13;12;
36519;PMS5003;40269;46.742;9.778;2022-12-31T16:48:36;23;21;
36519;PMS5003;40269;46.742;9.778;2022-12-31T16:51:04;33;33;
36519;PMS5003;40269;46.742;9.778;2022-12-31T16:53:33;25;24;
36519;PMS5003;40269;46.742;9.778;2022-12-31T16:56:03;20;18;
36519;PMS5003;40269;46.742;9.778;2022-12-31T16:58:33;16;15;
36519;PMS5003;40269;46.742;9.778;2022-12-31T17:01:06;20;19;
36519;PMS5003;40269;46.742;9.778;2022-12-31T17:03:38;19;16;
36519;PMS5003;40269;46.742;9.778;2022-12-31T17:06:12;22;19;
36519;PMS5003;40269;46.742;9.778;2022-12-31T17:08:41;35;35;
36519;PMS5003;40269;46.742;9.778;2022-12-31T17:11:17;20;19;
36519;PMS5003;40269;46.742;9.778;2022-12-31T17:13:52;20;19;
36519;PMS5003;40269;46.742;9.778;2022-12-31T17:16:20;13;13;
36519;PMS5003;40269;46.742;9.778;2022-12-31T17:18:48;18;17;
36519;PMS5003;40269;46.742;9.778;2022-12-31T17:21:15;21;19;
36519;PMS5003;40269;46.742;9.778;2022-12-31T17:23:42;19;18;
36519;PMS5003;40269;46.742;9.778;2022-12-31T17:26:21;26;25;
36519;PMS5003;40269;46.742;9.778;2022-12-31T17:28:50;29;27;
36519;PMS5003;40269;46.742;9.778;2022-12-31T17:31:35;43;37;